sensor_id;sensor_type;location;lat;lon;timestamp;pressure;altitude;pressure_sealevel;temperature;humidity
11672;BME280;5892;43.412;24.612;2023-08-01T00:00:53;99542.19;;;21.50;100.00
11672;BME280;5892;43.412;24.612;2023-08-01T00:03:21;99542.22;;;21.40;100.00
11672;BME280;5892;43.412;24.612;2023-08-01T00:05:48;99532.66;;;21.30;100.00
11672;BME280;5892;43.412;24.612;2023-08-01T00:08:15;99539.03;;;21.34;100.00
11672;BME280;5892;43.412;24.612;2023-08-01T00:10:42;99520.34;;;21.17;100.00
11672;BME280;5892;43.412;24.612;2023-08-01T00:13:10;99523.91;;;21.07;100.00
11672;BME280;5892;43.412;24.612;2023-08-01T00:15:37;99522.72;;;21.01;100.00
11672;BME280;5892;43.412;24.612;2023-08-01T00:18:04;99523.13;;;21.03;100.00
11672;BME280;5892;43.412;24.612;2023-08-01T00:20:31;99515.16;;;21.08;100.00
11672;BME280;5892;43.412;24.612;2023-08-01T00:22:58;99515.19;;;20.98;100.00
11672;BME280;5892;43.412;24.612;2023-08-01T00:25:25;99513.59;;;20.90;100.00
11672;BME280;5892;43.412;24.612;2023-08-01T00:27:52;99510.41;;;20.91;100.00
11672;BME280;5892;43.412;24.612;2023-08-01T00:30:20;99488.91;;;20.85;100.00
11672;BME280;5892;43.412;24.612;2023-08-01T00:32:47;99510.78;;;21.00;100.00
11672;BME280;5892;43.412;24.612;2023-08-01T00:35:14;99508.03;;;20.97;100.00
11672;BME280;5892;43.412;24.612;2023-08-01T00:37:41;99509.59;;;20.94;100.00
11672;BME280;5892;43.412;24.612;2023-08-01T00:40:09;99515.56;;;20.89;100.00
11672;BME280;5892;43.412;24.612;2023-08-01T00:42:36;99511.59;;;20.87;100.00
11672;BME280;5892;43.412;24.612;2023-08-01T00:45:04;99506.41;;;20.78;100.00
11672;BME280;5892;43.412;24.612;2023-08-01T00:47:33;99501.25;;;20.80;100.00
11672;BME280;5892;43.412;24.612;2023-08-01T00:50:00;99506.81;;;20.80;100.00
11672;BME280;5892;43.412;24.612;2023-08-01T00:52:28;99505.66;;;20.81;100.00
11672;BME280;5892;43.412;24.612;2023-08-01T00:54:55;99502.84;;;20.81;100.00
11672;BME280;5892;43.412;24.612;2023-08-01T00:57:22;99505.66;;;20.81;100.00
11672;BME280;5892;43.412;24.612;2023-08-01T00:59:49;99502.47;;;20.83;100.00
11672;BME280;5892;43.412;24.612;2023-08-01T01:02:16;99491.34;;;20.83;100.00
11672;BME280;5892;43.412;24.612;2023-08-01T01:04:44;99483.38;;;20.74;100.00
11672;BME280;5892;43.412;24.612;2023-08-01T01:07:12;99500.06;;;20.85;100.00
11672;BME280;5892;43.412;24.612;2023-08-01T01:09:39;99486.53;;;20.80;100.00
11672;BME280;5892;43.412;24.612;2023-08-01T01:12:06;99494.09;;;20.76;100.00
11672;BME280;5892;43.412;24.612;2023-08-01T01:14:33;99492.50;;;20.75;100.00
11672;BME280;5892;43.412;24.612;2023-08-01T01:17:00;99486.53;;;20.80;100.00
11672;BME280;5892;43.412;24.612;2023-08-01T01:19:27;99488.94;;;20.78;100.00
11672;BME280;5892;43.412;24.612;2023-08-01T01:21:56;99478.19;;;20.69;100.00
11672;BME280;5892;43.412;24.612;2023-08-01T01:24:25;99492.13;;;20.73;100.00
11672;BME280;5892;43.412;24.612;2023-08-01T01:26:54;99485.78;;;20.72;100.00
11672;BME280;5892;43.412;24.612;2023-08-01T01:29:22;99479.00;;;20.66;100.00
11672;BME280;5892;43.412;24.612;2023-08-01T01:31:50;99469.44;;;20.63;100.00
11672;BME280;5892;43.412;24.612;2023-08-01T01:34:17;99469.84;;;20.58;100.00
11672;BME280;5892;43.412;24.612;2023-08-01T01:36:44;99487.34;;;20.66;100.00
11672;BME280;5892;43.412;24.612;2023-08-01T01:39:12;99469.06;;;20.61;100.00
11672;BME280;5892;43.412;24.612;2023-08-01T01:41:39;99480.59;;;20.63;100.00
11672;BME280;5892;43.412;24.612;2023-08-01T01:44:06;99482.56;;;20.59;100.00
11672;BME280;5892;43.412;24.612;2023-08-01T01:46:33;99478.97;;;20.62;100.00
11672;BME280;5892;43.412;24.612;2023-08-01T01:48:59;99480.59;;;20.46;100.00
11672;BME280;5892;43.412;24.612;2023-08-01T01:51:26;99480.19;;;20.47;100.00
11672;BME280;5892;43.412;24.612;2023-08-01T01:53:53;99471.84;;;20.40;100.00
11672;BME280;5892;43.412;24.612;2023-08-01T01:56:21;99477.41;;;20.40;100.00
11672;BME280;5892;43.412;24.612;2023-08-01T01:58:48;99473.03;;;20.36;100.00
11672;BME280;5892;43.412;24.612;2023-08-01T02:01:15;99471.44;;;20.45;100.00
11672;BME280;5892;43.412;24.612;2023-08-01T02:03:42;99434.44;;;20.09;100.00
11672;BME280;5892;43.412;24.612;2023-08-01T02:06:08;99478.19;;;20.44;100.00
11672;BME280;5892;43.412;24.612;2023-08-01T02:08:35;99480.19;;;20.47;100.00
11672;BME280;5892;43.412;24.612;2023-08-01T02:11:02;99478.59;;;20.50;100.00
11672;BME280;5892;43.412;24.612;2023-08-01T02:13:32;99476.22;;;20.48;100.00
11672;BME280;5892;43.412;24.612;2023-08-01T02:15:58;99477.78;;;20.42;100.00
11672;BME280;5892;43.412;24.612;2023-08-01T02:18:25;99482.53;;;20.31;100.00
11672;BME280;5892;43.412;24.612;2023-08-01T02:20:52;99485.75;;;20.33;100.00
11672;BME280;5892;43.412;24.612;2023-08-01T02:23:19;99474.22;;;20.38;100.00
11672;BME280;5892;43.412;24.612;2023-08-01T02:25:46;99474.19;;;20.31;100.00
11672;BME280;5892;43.412;24.612;2023-08-01T02:28:14;99468.19;;;20.25;100.00
11672;BME280;5892;43.412;24.612;2023-08-01T02:30:42;99483.34;;;20.32;100.00
11672;BME280;5892;43.412;24.612;2023-08-01T02:33:09;99479.34;;;20.22;100.00
11672;BME280;5892;43.412;24.612;2023-08-01T02:35:37;99456.28;;;20.04;100.00
11672;BME280;5892;43.412;24.612;2023-08-01T02:38:04;99481.28;;;20.11;100.00
11672;BME280;5892;43.412;24.612;2023-08-01T02:40:31;99486.44;;;20.02;100.00
11672;BME280;5892;43.412;24.612;2023-08-01T02:42:58;99491.97;;;19.95;100.00
11672;BME280;5892;43.412;24.612;2023-08-01T02:45:24;99476.84;;;19.78;100.00
11672;BME280;5892;43.412;24.612;2023-08-01T02:47:53;99487.22;;;19.88;100.00
11672;BME280;5892;43.412;24.612;2023-08-01T02:50:19;99490.00;;;19.88;100.00
11672;BME280;5892;43.412;24.612;2023-08-01T02:52:46;99491.59;;;19.93;100.00
11672;BME280;5892;43.412;24.612;2023-08-01T02:55:13;99492.75;;;19.84;100.00
11672;BME280;5892;43.412;24.612;2023-08-01T02:57:40;99489.53;;;19.72;100.00
11672;BME280;5892;43.412;24.612;2023-08-01T03:00:07;99480.78;;;19.73;100.00
11672;BME280;5892;43.412;24.612;2023-08-01T03:02:37;99419.88;;;19.33;100.00
11672;BME280;5892;43.412;24.612;2023-08-01T03:05:07;99490.34;;;19.76;100.00
11672;BME280;5892;43.412;24.612;2023-08-01T03:07:34;99491.91;;;19.73;100.00
11672;BME280;5892;43.412;24.612;2023-08-01T03:10:01;99493.94;;;19.80;100.00
11672;BME280;5892;43.412;24.612;2023-08-01T03:12:28;99497.13;;;19.82;100.00
11672;BME280;5892;43.412;24.612;2023-08-01T03:14:56;99497.09;;;19.71;100.00
11672;BME280;5892;43.412;24.612;2023-08-01T03:17:23;99495.09;;;19.72;100.00
11672;BME280;5892;43.412;24.612;2023-08-01T03:19:50;99494.31;;;19.71;100.00
11672;BME280;5892;43.412;24.612;2023-08-01T03:22:18;99480.41;;;19.68;100.00
11672;BME280;5892;43.412;24.612;2023-08-01T03:24:45;99481.63;;;19.77;100.00
11672;BME280;5892;43.412;24.612;2023-08-01T03:27:12;99478.06;;;19.87;100.00
11672;BME280;5892;43.412;24.612;2023-08-01T03:29:39;99489.25;;;20.16;100.00
11672;BME280;5892;43.412;24.612;2023-08-01T03:32:06;99488.06;;;20.20;100.00
11672;BME280;5892;43.412;24.612;2023-08-01T03:34:33;99492.84;;;20.23;100.00
11672;BME280;5892;43.412;24.612;2023-08-01T03:37:00;99490.53;;;20.61;100.00
11672;BME280;5892;43.412;24.612;2023-08-01T03:39:28;99486.91;;;21.24;100.00
11672;BME280;5892;43.412;24.612;2023-08-01T03:41:55;99495.44;;;21.83;100.00
11672;BME280;5892;43.412;24.612;2023-08-01T03:44:22;99465.34;;;22.22;100.00
11672;BME280;5892;43.412;24.612;2023-08-01T03:46:51;99493.47;;;23.01;98.95
11672;BME280;5892;43.412;24.612;2023-08-01T03:49:17;99430.34;;;23.07;94.80
11672;BME280;5892;43.412;24.612;2023-08-01T03:51:44;99495.81;;;23.77;92.43
11672;BME280;5892;43.412;24.612;2023-08-01T03:54:11;99479.53;;;24.29;88.82
11672;BME280;5892;43.412;24.612;2023-08-01T03:56:40;99506.13;;;24.68;78.25
11672;BME280;5892;43.412;24.612;2023-08-01T03:59:09;99499.53;;;25.05;75.96
11672;BME280;5892;43.412;24.612;2023-08-01T04:01:36;99502.28;;;25.28;73.49
11672;BME280;5892;43.412;24.612;2023-08-01T04:04:03;99494.72;;;25.48;72.28
11672;BME280;5892;43.412;24.612;2023-08-01T04:06:30;99488.84;;;25.62;70.16
11672;BME280;5892;43.412;24.612;2023-08-01T04:08:57;99509.47;;;25.92;69.68
11672;BME280;5892;43.412;24.612;2023-08-01T04:11:25;99497.75;;;26.13;68.36
11672;BME280;5892;43.412;24.612;2023-08-01T04:13:53;99511.16;;;26.25;69.38
11672;BME280;5892;43.412;24.612;2023-08-01T04:16:20;99508.09;;;26.00;70.08
11672;BME280;5892;43.412;24.612;2023-08-01T04:18:47;99489.19;;;26.20;69.62
11672;BME280;5892;43.412;24.612;2023-08-01T04:21:15;99507.06;;;26.46;69.93
11672;BME280;5892;43.412;24.612;2023-08-01T04:23:42;99501.53;;;26.42;68.59
11672;BME280;5892;43.412;24.612;2023-08-01T04:26:09;99511.81;;;26.49;69.19
11672;BME280;5892;43.412;24.612;2023-08-01T04:28:35;99519.91;;;26.47;68.62
11672;BME280;5892;43.412;24.612;2023-08-01T04:31:04;99499.06;;;26.44;68.34
11672;BME280;5892;43.412;24.612;2023-08-01T04:33:30;99514.28;;;26.47;68.26
11672;BME280;5892;43.412;24.612;2023-08-01T04:35:57;99513.66;;;26.55;67.31
11672;BME280;5892;43.412;24.612;2023-08-01T04:38:24;99507.34;;;26.68;65.59
11672;BME280;5892;43.412;24.612;2023-08-01T04:40:51;99523.50;;;26.80;65.78
11672;BME280;5892;43.412;24.612;2023-08-01T04:43:18;99521.41;;;27.16;64.45
11672;BME280;5892;43.412;24.612;2023-08-01T04:45:45;99512.09;;;27.03;65.08
11672;BME280;5892;43.412;24.612;2023-08-01T04:48:13;99524.31;;;26.96;65.02
11672;BME280;5892;43.412;24.612;2023-08-01T04:50:40;99516.56;;;27.17;64.06
11672;BME280;5892;43.412;24.612;2023-08-01T04:53:07;99522.03;;;27.08;64.38
11672;BME280;5892;43.412;24.612;2023-08-01T04:55:34;99524.22;;;27.16;64.02
11672;BME280;5892;43.412;24.612;2023-08-01T04:58:01;99514.72;;;27.26;62.11
11672;BME280;5892;43.412;24.612;2023-08-01T05:00:28;99514.09;;;27.19;61.34
11672;BME280;5892;43.412;24.612;2023-08-01T05:02:55;99530.06;;;27.22;62.70
11672;BME280;5892;43.412;24.612;2023-08-01T05:05:23;99522.25;;;27.29;61.02
11672;BME280;5892;43.412;24.612;2023-08-01T05:07:50;99531.69;;;27.07;59.72
11672;BME280;5892;43.412;24.612;2023-08-01T05:10:17;99530.84;;;27.55;59.16
11672;BME280;5892;43.412;24.612;2023-08-01T05:12:44;99540.47;;;27.70;58.19
11672;BME280;5892;43.412;24.612;2023-08-01T05:15:11;99541.34;;;27.67;56.56
11672;BME280;5892;43.412;24.612;2023-08-01T05:17:38;99545.03;;;27.64;56.25
11672;BME280;5892;43.412;24.612;2023-08-01T05:20:06;99544.28;;;27.63;56.23
11672;BME280;5892;43.412;24.612;2023-08-01T05:22:35;99515.13;;;27.41;53.13
11672;BME280;5892;43.412;24.612;2023-08-01T05:25:02;99547.13;;;27.76;54.67
11672;BME280;5892;43.412;24.612;2023-08-01T05:27:30;99550.63;;;27.80;53.25
11672;BME280;5892;43.412;24.612;2023-08-01T05:29:57;99555.25;;;27.74;52.22
11672;BME280;5892;43.412;24.612;2023-08-01T05:32:25;99542.03;;;27.71;52.02
11672;BME280;5892;43.412;24.612;2023-08-01T05:34:52;99545.16;;;27.89;51.53
11672;BME280;5892;43.412;24.612;2023-08-01T05:37:18;99548.66;;;27.93;51.81
11672;BME280;5892;43.412;24.612;2023-08-01T05:39:47;99537.72;;;27.95;51.40
11672;BME280;5892;43.412;24.612;2023-08-01T05:42:13;99540.19;;;27.93;51.30
11672;BME280;5892;43.412;24.612;2023-08-01T05:44:40;99503.47;;;27.84;50.60
11672;BME280;5892;43.412;24.612;2023-08-01T05:47:07;99548.38;;;28.16;53.24
11672;BME280;5892;43.412;24.612;2023-08-01T05:49:34;99544.25;;;28.46;51.62
11672;BME280;5892;43.412;24.612;2023-08-01T05:52:01;99526.97;;;28.32;51.67
11672;BME280;5892;43.412;24.612;2023-08-01T05:54:28;99547.06;;;28.59;52.50
11672;BME280;5892;43.412;24.612;2023-08-01T05:56:56;99542.09;;;28.50;53.27
11672;BME280;5892;43.412;24.612;2023-08-01T05:59:23;99537.25;;;28.63;53.27
11672;BME280;5892;43.412;24.612;2023-08-01T06:01:50;99534.31;;;28.67;53.25
11672;BME280;5892;43.412;24.612;2023-08-01T06:04:17;99538.16;;;28.48;53.22
11672;BME280;5892;43.412;24.612;2023-08-01T06:06:44;99534.09;;;28.74;53.15
11672;BME280;5892;43.412;24.612;2023-08-01T06:09:11;99530.59;;;28.70;52.87
11672;BME280;5892;43.412;24.612;2023-08-01T06:11:38;99536.59;;;28.72;53.39
11672;BME280;5892;43.412;24.612;2023-08-01T06:14:06;99531.06;;;28.56;53.19
11672;BME280;5892;43.412;24.612;2023-08-01T06:16:33;99538.38;;;28.79;53.16
11672;BME280;5892;43.412;24.612;2023-08-01T06:19:00;99550.31;;;28.95;52.39
11672;BME280;5892;43.412;24.612;2023-08-01T06:21:28;99536.22;;;28.70;53.73
11672;BME280;5892;43.412;24.612;2023-08-01T06:23:55;99538.59;;;28.72;52.99
11672;BME280;5892;43.412;24.612;2023-08-01T06:26:22;99530.16;;;28.84;51.47
11672;BME280;5892;43.412;24.612;2023-08-01T06:28:49;99532.94;;;28.97;51.65
11672;BME280;5892;43.412;24.612;2023-08-01T06:31:20;99519.19;;;28.99;51.27
11672;BME280;5892;43.412;24.612;2023-08-01T06:33:47;99528.75;;;29.14;50.33
11672;BME280;5892;43.412;24.612;2023-08-01T06:36:14;99530.34;;;29.02;50.27
11672;BME280;5892;43.412;24.612;2023-08-01T06:38:42;99533.03;;;29.06;50.46
11672;BME280;5892;43.412;24.612;2023-08-01T06:41:09;99535.47;;;29.29;49.42
11672;BME280;5892;43.412;24.612;2023-08-01T06:43:36;99534.53;;;29.45;48.90
11672;BME280;5892;43.412;24.612;2023-08-01T06:46:04;99533.81;;;29.19;48.74
11672;BME280;5892;43.412;24.612;2023-08-01T06:48:32;99528.28;;;29.16;49.68
11672;BME280;5892;43.412;24.612;2023-08-01T06:51:01;99530.16;;;29.31;51.14
11672;BME280;5892;43.412;24.612;2023-08-01T06:53:28;99501.06;;;29.34;48.64
11672;BME280;5892;43.412;24.612;2023-08-01T06:55:55;99522.00;;;29.46;48.75
11672;BME280;5892;43.412;24.612;2023-08-01T06:58:22;99524.44;;;29.78;48.72
11672;BME280;5892;43.412;24.612;2023-08-01T07:00:48;99516.69;;;29.70;48.43
11672;BME280;5892;43.412;24.612;2023-08-01T07:03:15;99494.97;;;29.23;50.00
11672;BME280;5892;43.412;24.612;2023-08-01T07:05:43;99529.13;;;29.94;50.08
11672;BME280;5892;43.412;24.612;2023-08-01T07:08:10;99422.69;;;29.38;49.61
11672;BME280;5892;43.412;24.612;2023-08-01T07:10:37;99519.13;;;29.80;49.51
11672;BME280;5892;43.412;24.612;2023-08-01T07:13:04;99517.91;;;30.03;49.85
11672;BME280;5892;43.412;24.612;2023-08-01T07:15:31;99520.84;;;30.00;47.81
11672;BME280;5892;43.412;24.612;2023-08-01T07:17:58;99515.94;;;29.91;46.12
11672;BME280;5892;43.412;24.612;2023-08-01T07:20:25;99521.03;;;30.05;48.00
11672;BME280;5892;43.412;24.612;2023-08-01T07:22:54;99519.88;;;29.94;48.41
11672;BME280;5892;43.412;24.612;2023-08-01T07:25:20;99529.38;;;29.65;49.63
11672;BME280;5892;43.412;24.612;2023-08-01T07:27:47;99517.09;;;30.03;48.38
11672;BME280;5892;43.412;24.612;2023-08-01T07:30:15;99518.94;;;29.97;47.39
11672;BME280;5892;43.412;24.612;2023-08-01T07:32:42;99510.28;;;29.91;48.44
11672;BME280;5892;43.412;24.612;2023-08-01T07:35:10;99518.72;;;30.13;46.41
11672;BME280;5892;43.412;24.612;2023-08-01T07:37:38;99504.38;;;29.98;47.64
11672;BME280;5892;43.412;24.612;2023-08-01T07:40:08;99513.03;;;30.04;48.93
11672;BME280;5892;43.412;24.612;2023-08-01T07:42:35;99520.56;;;29.85;46.29
11672;BME280;5892;43.412;24.612;2023-08-01T07:45:03;99521.38;;;30.07;48.19
11672;BME280;5892;43.412;24.612;2023-08-01T07:47:30;99527.22;;;29.91;48.13
11672;BME280;5892;43.412;24.612;2023-08-01T07:49:57;99525.81;;;29.74;47.83
11672;BME280;5892;43.412;24.612;2023-08-01T07:52:23;99509.06;;;29.79;47.78
11672;BME280;5892;43.412;24.612;2023-08-01T07:54:50;99497.25;;;29.50;47.80
11672;BME280;5892;43.412;24.612;2023-08-01T07:57:20;99519.25;;;29.77;47.62
11672;BME280;5892;43.412;24.612;2023-08-01T07:59:46;99513.72;;;30.17;47.62
11672;BME280;5892;43.412;24.612;2023-08-01T08:02:13;99527.09;;;30.25;49.37
11672;BME280;5892;43.412;24.612;2023-08-01T08:04:40;99517.84;;;30.25;48.59
11672;BME280;5892;43.412;24.612;2023-08-01T08:07:07;99514.91;;;30.38;49.16
11672;BME280;5892;43.412;24.612;2023-08-01T08:09:34;99510.66;;;30.33;47.31
11672;BME280;5892;43.412;24.612;2023-08-01T08:12:01;99516.28;;;30.24;48.37
11672;BME280;5892;43.412;24.612;2023-08-01T08:14:29;99503.66;;;30.16;50.16
11672;BME280;5892;43.412;24.612;2023-08-01T08:16:56;99518.09;;;30.09;50.19
11672;BME280;5892;43.412;24.612;2023-08-01T08:19:23;99507.03;;;30.33;50.16
11672;BME280;5892;43.412;24.612;2023-08-01T08:21:51;99505.13;;;30.51;49.56
11672;BME280;5892;43.412;24.612;2023-08-01T08:24:19;99504.91;;;30.46;48.73
11672;BME280;5892;43.412;24.612;2023-08-01T08:26:46;99512.72;;;30.42;49.46
11672;BME280;5892;43.412;24.612;2023-08-01T08:29:13;99494.75;;;30.26;48.99
11672;BME280;5892;43.412;24.612;2023-08-01T08:31:41;99479.28;;;30.40;48.95
11672;BME280;5892;43.412;24.612;2023-08-01T08:34:09;99496.25;;;30.80;47.68
11672;BME280;5892;43.412;24.612;2023-08-01T08:36:36;99487.91;;;30.77;46.05
11672;BME280;5892;43.412;24.612;2023-08-01T08:39:03;99494.47;;;30.24;50.84
11672;BME280;5892;43.412;24.612;2023-08-01T08:41:35;99499.00;;;30.22;51.58
11672;BME280;5892;43.412;24.612;2023-08-01T08:44:06;99491.94;;;29.96;51.17
11672;BME280;5892;43.412;24.612;2023-08-01T08:46:35;99488.66;;;30.28;51.11
11672;BME280;5892;43.412;24.612;2023-08-01T08:49:08;99494.22;;;30.10;51.46
11672;BME280;5892;43.412;24.612;2023-08-01T08:51:36;99470.53;;;29.42;52.80
11672;BME280;5892;43.412;24.612;2023-08-01T08:54:04;99476.50;;;29.87;53.54
11672;BME280;5892;43.412;24.612;2023-08-01T08:56:33;99454.69;;;29.23;52.60
11672;BME280;5892;43.412;24.612;2023-08-01T08:59:01;99480.28;;;29.28;55.04
11672;BME280;5892;43.412;24.612;2023-08-01T09:01:28;99487.94;;;29.62;54.48
11672;BME280;5892;43.412;24.612;2023-08-01T09:03:56;99477.13;;;29.26;54.74
11672;BME280;5892;43.412;24.612;2023-08-01T09:06:29;99467.53;;;29.24;55.08
11672;BME280;5892;43.412;24.612;2023-08-01T09:09:01;99470.88;;;29.44;54.28
11672;BME280;5892;43.412;24.612;2023-08-01T09:11:38;99467.00;;;29.72;56.35
11672;BME280;5892;43.412;24.612;2023-08-01T09:14:05;99454.56;;;29.92;55.93
11672;BME280;5892;43.412;24.612;2023-08-01T09:16:33;99469.69;;;29.98;55.84
11672;BME280;5892;43.412;24.612;2023-08-01T09:19:00;99459.44;;;29.47;54.30
11672;BME280;5892;43.412;24.612;2023-08-01T09:21:31;99457.53;;;29.66;55.49
11672;BME280;5892;43.412;24.612;2023-08-01T09:24:08;99462.19;;;30.04;56.34
11672;BME280;5892;43.412;24.612;2023-08-01T09:26:35;99451.91;;;30.28;55.93
11672;BME280;5892;43.412;24.612;2023-08-01T09:29:02;99444.16;;;30.10;56.87
11672;BME280;5892;43.412;24.612;2023-08-01T09:31:29;99441.59;;;30.34;56.11
11672;BME280;5892;43.412;24.612;2023-08-01T09:33:57;99444.09;;;30.41;54.47
11672;BME280;5892;43.412;24.612;2023-08-01T09:36:23;99448.94;;;30.31;55.10
11672;BME280;5892;43.412;24.612;2023-08-01T09:38:57;99442.78;;;30.64;53.82
11672;BME280;5892;43.412;24.612;2023-08-01T09:41:25;99438.53;;;30.68;55.18
11672;BME280;5892;43.412;24.612;2023-08-01T09:43:52;99442.66;;;30.77;53.98
11672;BME280;5892;43.412;24.612;2023-08-01T09:46:19;99448.16;;;30.89;54.55
11672;BME280;5892;43.412;24.612;2023-08-01T09:48:45;99442.69;;;31.04;54.03
11672;BME280;5892;43.412;24.612;2023-08-01T09:51:13;99439.53;;;31.02;53.96
11672;BME280;5892;43.412;24.612;2023-08-01T09:53:48;99435.81;;;31.23;53.54
11672;BME280;5892;43.412;24.612;2023-08-01T09:56:19;99432.78;;;31.36;52.97
11672;BME280;5892;43.412;24.612;2023-08-01T09:58:47;99438.00;;;31.37;52.18
11672;BME280;5892;43.412;24.612;2023-08-01T10:01:15;99432.94;;;31.41;52.31
11672;BME280;5892;43.412;24.612;2023-08-01T10:03:45;99423.84;;;31.28;52.02
11672;BME280;5892;43.412;24.612;2023-08-01T10:06:14;99414.88;;;31.11;52.68
11672;BME280;5892;43.412;24.612;2023-08-01T10:08:44;99409.81;;;30.70;55.20
11672;BME280;5892;43.412;24.612;2023-08-01T10:11:12;99380.25;;;30.62;53.25
11672;BME280;5892;43.412;24.612;2023-08-01T10:13:41;99419.41;;;31.00;52.94
11672;BME280;5892;43.412;24.612;2023-08-01T10:16:08;99398.03;;;30.90;53.52
11672;BME280;5892;43.412;24.612;2023-08-01T10:18:36;99402.78;;;31.11;55.46
11672;BME280;5892;43.412;24.612;2023-08-01T10:21:05;99411.41;;;30.98;53.72
11672;BME280;5892;43.412;24.612;2023-08-01T10:23:34;99407.44;;;30.68;55.07
11672;BME280;5892;43.412;24.612;2023-08-01T10:26:04;99406.22;;;29.89;53.35
11672;BME280;5892;43.412;24.612;2023-08-01T10:28:31;99393.06;;;30.36;56.22
11672;BME280;5892;43.412;24.612;2023-08-01T10:31:08;99397.72;;;30.79;53.73
11672;BME280;5892;43.412;24.612;2023-08-01T10:33:36;99392.97;;;30.57;54.99
11672;BME280;5892;43.412;24.612;2023-08-01T10:36:13;99361.16;;;30.26;56.75
11672;BME280;5892;43.412;24.612;2023-08-01T10:38:45;99381.91;;;30.41;57.41
11672;BME280;5892;43.412;24.612;2023-08-01T10:41:24;99387.69;;;30.87;54.54
11672;BME280;5892;43.412;24.612;2023-08-01T10:43:51;99380.75;;;30.97;52.79
11672;BME280;5892;43.412;24.612;2023-08-01T10:46:20;99373.84;;;30.98;51.19
11672;BME280;5892;43.412;24.612;2023-08-01T10:48:50;99354.66;;;31.02;52.22
11672;BME280;5892;43.412;24.612;2023-08-01T10:51:18;99363.78;;;30.60;51.35
11672;BME280;5892;43.412;24.612;2023-08-01T10:53:45;99348.47;;;30.40;52.75
11672;BME280;5892;43.412;24.612;2023-08-01T10:56:18;99354.53;;;30.87;52.71
11672;BME280;5892;43.412;24.612;2023-08-01T10:58:46;99347.13;;;31.17;51.25
11672;BME280;5892;43.412;24.612;2023-08-01T11:01:14;99333.75;;;30.63;50.32
11672;BME280;5892;43.412;24.612;2023-08-01T11:03:42;99343.78;;;30.46;50.99
11672;BME280;5892;43.412;24.612;2023-08-01T11:06:12;99337.84;;;30.53;52.91
11672;BME280;5892;43.412;24.612;2023-08-01T11:08:40;99335.50;;;30.79;52.79
11672;BME280;5892;43.412;24.612;2023-08-01T11:11:12;99332.97;;;30.90;51.55
11672;BME280;5892;43.412;24.612;2023-08-01T11:13:40;99331.09;;;30.68;51.17
11672;BME280;5892;43.412;24.612;2023-08-01T11:16:06;99305.31;;;30.57;51.31
11672;BME280;5892;43.412;24.612;2023-08-01T11:18:42;99333.28;;;31.01;49.11
11672;BME280;5892;43.412;24.612;2023-08-01T11:21:09;99299.66;;;30.85;49.77
11672;BME280;5892;43.412;24.612;2023-08-01T11:23:36;99322.25;;;31.30;48.31
11672;BME280;5892;43.412;24.612;2023-08-01T11:26:06;99314.38;;;31.34;48.52
11672;BME280;5892;43.412;24.612;2023-08-01T11:28:34;99310.88;;;31.58;48.20
11672;BME280;5892;43.412;24.612;2023-08-01T11:31:00;99310.81;;;31.67;47.62
11672;BME280;5892;43.412;24.612;2023-08-01T11:33:28;99310.44;;;31.83;45.95
11672;BME280;5892;43.412;24.612;2023-08-01T11:35:57;99307.59;;;31.83;45.79
11672;BME280;5892;43.412;24.612;2023-08-01T11:38:26;99307.16;;;31.33;46.51
11672;BME280;5892;43.412;24.612;2023-08-01T11:40:56;99282.38;;;30.92;47.65
11672;BME280;5892;43.412;24.612;2023-08-01T11:43:23;99296.22;;;31.08;46.45
11672;BME280;5892;43.412;24.612;2023-08-01T11:45:50;99306.59;;;30.75;46.84
11672;BME280;5892;43.412;24.612;2023-08-01T11:48:17;99298.38;;;30.95;46.45
11672;BME280;5892;43.412;24.612;2023-08-01T11:50:45;99306.59;;;30.93;45.85
11672;BME280;5892;43.412;24.612;2023-08-01T11:53:21;99303.59;;;30.96;45.04
11672;BME280;5892;43.412;24.612;2023-08-01T11:55:48;99301.09;;;30.71;44.12
11672;BME280;5892;43.412;24.612;2023-08-01T11:58:27;99291.19;;;30.85;44.04
11672;BME280;5892;43.412;24.612;2023-08-01T12:01:02;99289.44;;;30.96;43.51
11672;BME280;5892;43.412;24.612;2023-08-01T12:03:29;99277.34;;;31.14;43.23
11672;BME280;5892;43.412;24.612;2023-08-01T12:06:03;99278.97;;;31.39;43.54
11672;BME280;5892;43.412;24.612;2023-08-01T12:08:32;99257.34;;;31.18;44.17
11672;BME280;5892;43.412;24.612;2023-08-01T12:10:59;99287.56;;;31.53;44.71
11672;BME280;5892;43.412;24.612;2023-08-01T12:13:27;99278.38;;;31.26;44.44
11672;BME280;5892;43.412;24.612;2023-08-01T12:15:55;99272.47;;;30.96;45.48
11672;BME280;5892;43.412;24.612;2023-08-01T12:18:23;99271.50;;;31.18;44.57
11672;BME280;5892;43.412;24.612;2023-08-01T12:20:51;99266.16;;;31.01;43.73
11672;BME280;5892;43.412;24.612;2023-08-01T12:23:18;99262.44;;;30.68;43.47
11672;BME280;5892;43.412;24.612;2023-08-01T12:25:47;99231.00;;;30.39;44.43
11672;BME280;5892;43.412;24.612;2023-08-01T12:28:15;99251.28;;;30.83;43.33
11672;BME280;5892;43.412;24.612;2023-08-01T12:30:43;99241.19;;;31.09;43.67
11672;BME280;5892;43.412;24.612;2023-08-01T12:33:10;99241.72;;;31.40;42.96
11672;BME280;5892;43.412;24.612;2023-08-01T12:35:39;99244.63;;;31.55;42.92
11672;BME280;5892;43.412;24.612;2023-08-01T12:38:06;99239.66;;;31.41;42.35
11672;BME280;5892;43.412;24.612;2023-08-01T12:40:33;99235.63;;;31.56;42.67
11672;BME280;5892;43.412;24.612;2023-08-01T12:43:01;99233.75;;;31.63;41.33
11672;BME280;5892;43.412;24.612;2023-08-01T12:45:28;99225.03;;;31.75;41.37
11672;BME280;5892;43.412;24.612;2023-08-01T12:47:55;99226.66;;;31.67;40.46
11672;BME280;5892;43.412;24.612;2023-08-01T12:50:22;99210.72;;;31.37;42.01
11672;BME280;5892;43.412;24.612;2023-08-01T12:52:49;99226.38;;;31.56;43.34
11672;BME280;5892;43.412;24.612;2023-08-01T12:55:16;99206.34;;;31.69;41.43
11672;BME280;5892;43.412;24.612;2023-08-01T12:57:43;99214.31;;;31.79;41.11
11672;BME280;5892;43.412;24.612;2023-08-01T13:00:12;99218.41;;;31.45;41.28